Main page
METAR-TAF:

METAR-TAF

Airports :

Zagreb, Croatia

Zagreb Airport

latitude: 45-44N, longitude: 016-04E, elevation: 106 m

Current weather observation

The report was made 15 minutes ago, at 19:00 UTC
Wind 2 kt from variable directions
Temperature 5°C
Humidity 87%
Pressure 1023 hPa
Visibility: 8000 m
Overcast at a height of 2800 ft
light drizzle

METAR: LDZA 171900Z VRB02KT 8000 -DZ OVC028 05/03 Q1023 NOSIG

Time: 20:15 (19:15 UTC)

Forecast

The report was made 1 hour and 50 minutes ago, at 17:25 UTC
Forecast valid from 17 at 18 UTC to 18 at 18 UTC
Wind 6 kt from the Northeast
Visibility: 6000 m
Overcast at a height of 2000 ft
Probability 40%
from 18 at 00 UTC to 18 at 09 UTC
Visibility: 2000 m
Overcast at a height of 800 ft
drizzle, mist
Becoming
from 18 at 16 UTC to 18 at 18 UTC
Visibility: 0300 m
fog

TAF: LDZA 171725Z 1718/1818 04006KT 6000 OVC020 TX07/1812Z TN01/1817Z PROB40 1800/1809 2000 DZ BR OVC008 BECMG 1816/1818 0300 FG

Weather observations and forecasts of more than 4000 airports (METAR and TAF reports).

The available stations are represented by yellow and red dots on the map.

Hover mouse over dot to see the name of the station.

Then click to see weather observations and forecasts.

To change the map : click on the green buttons with a black cross to zoom in, on the green button with a dash to zoom out, or on the green arrows for adjacent maps.


METAR-TAF: